Saint Albans Bay, Vermont
Current Conditions -  °F | °C
As of 7:55 AM on Monday 22 Dec 2014 (Local Time) from KFSO Reporting Station
Haze Haze  
Wind Chill: 17°   Ceiling: 200
Heat Index: 17°   Visibility: 3mi
Dew Point: 15°   Wind: 0mph
Humidity: 93%   Direction: NA
Pressure: 30.41"   Gusts: NA
Location:  44.81°N, 73.14°W
Report Text: KFSO 221255Z AUTO 00000KT 3SM BR OVC002 M08/M09 A3041 RMK AO2 T10821092
Loading
Personal Weather Stations






























Interactive Weather Map New forecast layout! Learn more

10-Day Weather Forecast

Advertisements
Track Severe Weather on mobile